createdAt,value
2023-04-16T00:00:53.105Z,97.5332
2023-04-16T00:01:53.850Z,97.1321
2023-04-16T00:02:54.657Z,97.2650
2023-04-16T00:03:55.935Z,97.4148
2023-04-16T00:04:56.746Z,97.4670
2023-04-16T00:05:57.358Z,97.4778
2023-04-16T00:06:58.051Z,97.4946
2023-04-16T00:07:58.662Z,97.5198
2023-04-16T00:08:59.323Z,97.4501
2023-04-16T00:10:00.008Z,97.3511
2023-04-16T00:11:00.673Z,97.4205
2023-04-16T00:12:01.332Z,97.4859
2023-04-16T00:13:02.053Z,97.5892
2023-04-16T00:14:02.663Z,97.6216
2023-04-16T00:15:03.332Z,97.6971
2023-04-16T00:16:03.994Z,97.8234
2023-04-16T00:17:04.736Z,97.6345
2023-04-16T00:18:05.459Z,97.4752
2023-04-16T00:19:06.133Z,97.5747
2023-04-16T00:20:06.775Z,97.2708
2023-04-16T00:21:07.441Z,96.8202
2023-04-16T00:22:08.117Z,96.8201
2023-04-16T00:23:08.814Z,97.0941
2023-04-16T00:24:09.451Z,97.1577
2023-04-16T00:25:10.100Z,97.0915
2023-04-16T00:26:10.739Z,97.0956
2023-04-16T00:27:11.722Z,97.0450
2023-04-16T00:28:12.337Z,96.8978
2023-04-16T00:29:13.003Z,97.0929
2023-04-16T00:30:13.623Z,97.0451
2023-04-16T00:31:14.568Z,96.9995
2023-04-16T00:32:15.248Z,97.2035
2023-04-16T00:33:15.900Z,97.2811
2023-04-16T00:34:18.408Z,97.2925
2023-04-16T00:35:19.066Z,97.3798
2023-04-16T00:36:19.943Z,97.5916
2023-04-16T00:37:20.570Z,97.6455
2023-04-16T00:38:21.230Z,97.6924
2023-04-16T00:39:21.999Z,97.5714
2023-04-16T00:40:22.683Z,97.5476
2023-04-16T00:41:23.298Z,97.3511
2023-04-16T00:42:23.994Z,97.4114
2023-04-16T00:43:24.636Z,97.5588
2023-04-16T00:44:25.297Z,97.3457
2023-04-16T00:45:25.956Z,97.4193
2023-04-16T00:46:26.680Z,97.5199
2023-04-16T00:47:27.310Z,97.3530
2023-04-16T00:48:28.017Z,97.3563
2023-04-16T00:49:28.646Z,97.5053
2023-04-16T00:50:29.314Z,97.6765
2023-04-16T00:51:29.997Z,97.6043
2023-04-16T00:52:30.621Z,97.4210
2023-04-16T00:53:31.295Z,97.3818
2023-04-16T00:54:31.959Z,97.0777
2023-04-16T00:55:32.633Z,97.2226
2023-04-16T00:56:33.278Z,97.4016
2023-04-16T00:57:33.981Z,97.4308
2023-04-16T00:58:34.643Z,97.5351
2023-04-16T00:59:35.288Z,97.3709
2023-04-16T01:00:35.933Z,97.2718
2023-04-16T01:01:36.616Z,97.4971
2023-04-16T01:02:37.336Z,97.6303
2023-04-16T01:03:38.179Z,97.4552
2023-04-16T01:04:38.877Z,97.7780
2023-04-16T01:05:39.544Z,97.4719
2023-04-16T01:06:40.260Z,97.5746
2023-04-16T01:07:40.904Z,97.5932
2023-04-16T01:08:41.534Z,97.7067
2023-04-16T01:09:42.208Z,97.6527
2023-04-16T01:10:42.872Z,97.7877
2023-04-16T01:11:43.493Z,97.9659
2023-04-16T01:12:44.130Z,97.6743
2023-04-16T01:13:44.778Z,97.7821
2023-04-16T01:14:45.878Z,97.9261
2023-04-16T01:15:46.530Z,97.5425
2023-04-16T01:16:47.184Z,97.5824
2023-04-16T01:17:47.856Z,97.6588
2023-04-16T01:18:48.483Z,97.6849
2023-04-16T01:19:49.173Z,97.6008
2023-04-16T01:20:49.870Z,97.4749
2023-04-16T01:21:50.550Z,97.1767
2023-04-16T01:22:51.254Z,96.9063
2023-04-16T01:23:51.928Z,96.9719
2023-04-16T01:24:52.666Z,97.0204
2023-04-16T01:25:53.365Z,97.1746
2023-04-16T01:26:54.047Z,97.3584
2023-04-16T01:27:54.728Z,97.3972
2023-04-16T01:28:55.400Z,97.3406
2023-04-16T01:29:56.092Z,97.5889
2023-04-16T01:30:56.799Z,97.4289
2023-04-16T01:31:57.468Z,97.0861
2023-04-16T01:32:58.200Z,97.5026
2023-04-16T01:33:59.118Z,97.5742
2023-04-16T01:34:59.818Z,97.6633
2023-04-16T01:36:00.587Z,97.8460
2023-04-16T01:37:01.419Z,97.7509
2023-04-16T01:38:02.091Z,97.2237
2023-04-16T01:39:02.764Z,97.2389
2023-04-16T01:40:03.453Z,97.5441
2023-04-16T01:41:04.163Z,97.5839
2023-04-16T01:42:04.897Z,97.3879
2023-04-16T01:43:05.603Z,97.4834
2023-04-16T01:44:06.297Z,97.6690
2023-04-16T01:45:06.979Z,97.7527
2023-04-16T01:46:07.682Z,97.8706
2023-04-16T01:47:08.362Z,97.8488
2023-04-16T01:48:09.079Z,97.4956
2023-04-16T01:49:09.949Z,97.6539
2023-04-16T01:50:10.700Z,97.8594
2023-04-16T01:51:11.658Z,97.7661
2023-04-16T01:52:12.331Z,97.8095
2023-04-16T01:53:13.012Z,97.7506
2023-04-16T01:54:13.686Z,97.7179
2023-04-16T01:55:14.404Z,97.7884
2023-04-16T01:56:15.106Z,97.7405
2023-04-16T01:57:15.776Z,97.8154
2023-04-16T01:58:16.439Z,97.9462
2023-04-16T01:59:17.358Z,97.6742
2023-04-16T02:00:18.043Z,97.6541
2023-04-16T02:01:18.809Z,97.7448
2023-04-16T02:02:19.575Z,97.9948
2023-04-16T02:03:20.419Z,98.2060
2023-04-16T02:04:21.144Z,98.0073
2023-04-16T06:48:58.668Z,97.9119
2023-04-16T06:49:52.696Z,98.7437
2023-04-16T06:50:53.493Z,98.7441
2023-04-16T06:51:54.167Z,98.8565
2023-04-16T06:52:54.856Z,99.0083
2023-04-16T06:53:55.659Z,98.9603
2023-04-16T06:54:56.407Z,98.9781
2023-04-16T06:55:57.227Z,98.9478
2023-04-16T06:56:58.150Z,98.9837
2023-04-16T06:57:58.771Z,98.9869
2023-04-16T06:58:59.452Z,99.0475
2023-04-16T07:00:00.243Z,99.2958
2023-04-16T07:01:00.995Z,99.4392
2023-04-16T07:02:01.873Z,99.4829
2023-04-16T07:03:03.130Z,99.4473
2023-04-16T07:04:04.041Z,99.4369
2023-04-16T07:05:04.852Z,99.1823
2023-04-16T07:06:05.532Z,99.1000
2023-04-16T07:07:06.238Z,99.0698
2023-04-16T07:08:06.951Z,98.7448
2023-04-16T07:09:07.788Z,98.7096
2023-04-16T07:10:08.555Z,98.4942
2023-04-16T07:11:09.262Z,98.6321
2023-04-16T07:12:09.933Z,98.8499
2023-04-16T07:13:10.864Z,98.9245
2023-04-16T07:14:11.746Z,99.0293
2023-04-16T07:15:12.418Z,98.6534
2023-04-16T07:16:13.469Z,98.7887
2023-04-16T07:17:14.145Z,98.6755
2023-04-16T07:18:14.848Z,98.6907
2023-04-16T07:19:15.547Z,98.7875
2023-04-16T07:20:16.262Z,98.8524
2023-04-16T07:21:17.478Z,98.9677
2023-04-16T07:22:18.114Z,98.7215
2023-04-16T07:23:18.820Z,98.6629
2023-04-16T07:24:19.570Z,98.7812
2023-04-16T07:25:20.252Z,98.8178
2023-04-16T07:26:20.929Z,98.6868
2023-04-16T07:27:21.751Z,98.3573
2023-04-16T07:28:22.410Z,98.2800
2023-04-16T07:29:23.290Z,98.2800
2023-04-16T07:30:24.098Z,98.0755
2023-04-16T07:31:24.835Z,98.1405
2023-04-16T07:32:25.626Z,98.2430
2023-04-16T07:33:26.559Z,98.0933
2023-04-16T07:34:27.293Z,98.1918
2023-04-16T07:35:27.982Z,98.3567
2023-04-16T07:36:28.646Z,98.5017
2023-04-16T07:37:29.369Z,98.7032
2023-04-16T07:38:30.026Z,98.7345
2023-04-16T07:39:30.717Z,98.5639
2023-04-16T07:40:31.427Z,98.2234
2023-04-16T07:41:32.367Z,98.0751
2023-04-16T07:42:33.035Z,97.6758
2023-04-16T07:47:58.135Z,97.9046
2023-04-16T07:48:51.853Z,96.5362
2023-04-16T07:49:52.769Z,96.7992
2023-04-16T07:50:53.455Z,97.1178
2023-04-16T07:51:54.381Z,96.9897
2023-04-16T07:52:55.242Z,96.7556
2023-04-16T07:53:56.000Z,97.2214
2023-04-16T07:54:56.859Z,97.2594
2023-04-16T07:55:57.732Z,97.3930
2023-04-16T07:56:58.478Z,97.6046
2023-04-16T07:57:59.689Z,97.5928
2023-04-16T07:59:07.833Z,97.6953
2023-04-16T08:00:03.738Z,97.2999
2023-04-16T08:01:04.420Z,97.3317
2023-04-16T08:02:05.186Z,97.9096
2023-04-16T08:03:06.011Z,97.6865
2023-04-16T08:04:07.087Z,97.2439
2023-04-16T08:05:07.865Z,97.4179
2023-04-16T08:06:08.568Z,97.5889
2023-04-16T08:07:09.241Z,97.4880
2023-04-16T08:08:11.457Z,97.6410
2023-04-16T08:09:12.294Z,97.7097
2023-04-16T08:10:13.043Z,97.8652
2023-04-16T08:11:13.848Z,97.4979
2023-04-16T08:12:14.546Z,97.5954
2023-04-16T08:18:09.950Z,97.5303
2023-04-16T08:19:10.970Z,97.1265
2023-04-16T08:20:15.060Z,96.7880
2023-04-16T08:21:15.328Z,97.0592
2023-04-16T08:22:16.305Z,97.3753
2023-04-16T08:23:17.208Z,97.4915
2023-04-16T08:24:17.918Z,97.1109
2023-04-16T08:25:18.605Z,97.2933
2023-04-16T08:26:19.561Z,96.7674
2023-04-16T08:27:20.502Z,96.7769
2023-04-16T08:28:21.230Z,97.3439
2023-04-16T08:29:22.388Z,96.7505
2023-04-16T08:30:23.064Z,96.7910
2023-04-16T08:31:23.836Z,96.7412
2023-04-16T08:32:24.637Z,96.8549
2023-04-16T08:33:25.636Z,96.8140
2023-04-16T08:34:26.368Z,96.7731
2023-04-16T08:35:27.112Z,97.4855
2023-04-16T08:36:27.853Z,97.1980
2023-04-16T08:37:28.542Z,97.0248
2023-04-16T08:38:29.505Z,96.7691
2023-04-16T08:39:30.183Z,97.0443
2023-04-16T08:40:30.950Z,97.3158
2023-04-16T08:41:31.648Z,97.4158
2023-04-16T08:42:32.394Z,96.4035
2023-04-16T08:43:33.093Z,97.1393
2023-04-16T08:44:33.808Z,97.2779
2023-04-16T08:45:34.565Z,97.0448
2023-04-16T08:46:35.311Z,96.5092
2023-04-16T08:47:36.019Z,95.1826
2023-04-16T08:48:36.727Z,95.5393
2023-04-16T08:49:37.434Z,95.2801
2023-04-16T08:50:38.406Z,95.5866
2023-04-16T08:51:39.225Z,95.7608
2023-04-16T08:52:39.912Z,96.1567
2023-04-16T08:53:40.738Z,96.4939
2023-04-16T08:54:41.496Z,95.4288
2023-04-16T08:55:42.289Z,96.1131
2023-04-16T11:00:38.375Z,96.0835
2023-04-16T11:26:09.643Z,95.8740
2023-04-16T11:41:49.429Z,94.3954
2023-04-16T11:42:20.271Z,95.8740
2023-04-16T11:43:21.076Z,96.3412
2023-04-16T11:44:21.949Z,96.2056
2023-04-16T11:45:22.931Z,96.5243
2023-04-16T11:46:27.841Z,96.8274
2023-04-16T11:47:25.994Z,96.9903
2023-04-16T11:48:26.917Z,97.0313
2023-04-16T11:49:27.715Z,97.2438
2023-04-16T11:50:28.533Z,97.2005
2023-04-16T11:51:29.368Z,97.0925
2023-04-16T11:52:30.239Z,96.8245
2023-04-16T11:53:31.052Z,96.5507
2023-04-16T11:54:31.819Z,96.6339
2023-04-16T11:55:32.623Z,96.7694
2023-04-16T11:56:33.469Z,96.7935
2023-04-16T11:57:35.782Z,96.4082
2023-04-16T11:58:36.821Z,96.4096
2023-04-16T11:59:36.751Z,96.6876
2023-04-16T12:00:38.351Z,96.4593
2023-04-16T12:01:40.777Z,96.4145
2023-04-16T12:02:43.403Z,96.0004
2023-04-16T12:03:46.066Z,95.8939
2023-04-16T12:42:25.168Z,95.4673
2023-04-16T13:08:26.719Z,94.1344
2023-04-16T13:08:57.038Z,93.9193
2023-04-16T13:09:57.797Z,94.7152
2023-04-16T13:10:58.601Z,95.4816
2023-04-16T13:11:59.401Z,96.1108
2023-04-16T13:13:00.258Z,95.5358
2023-04-16T13:14:01.086Z,95.2820
2023-04-16T13:15:02.193Z,95.0152
2023-04-16T13:16:02.973Z,94.7143
2023-04-16T13:17:03.769Z,94.9509
2023-04-16T13:18:04.642Z,94.6938
2023-04-16T13:19:05.440Z,94.5975
2023-04-16T13:20:06.205Z,94.4825
2023-04-16T13:21:07.003Z,94.9196
2023-04-16T13:22:08.589Z,95.5135
2023-04-16T13:23:09.367Z,95.2169
2023-04-16T13:24:10.123Z,95.2303
2023-04-16T13:25:10.873Z,95.8907
2023-04-16T13:26:11.597Z,95.1037
2023-04-16T13:27:12.364Z,95.3409
2023-04-16T13:28:13.106Z,95.5987
2023-04-16T13:29:13.853Z,95.7366
2023-04-16T13:30:14.587Z,95.0988
2023-04-16T13:31:15.388Z,94.2150
2023-04-16T13:32:16.113Z,94.8445
2023-04-16T13:33:16.978Z,95.0482
2023-04-16T13:34:17.719Z,95.0531
2023-04-16T13:35:18.445Z,93.8032
2023-04-16T13:36:19.220Z,93.1361
2023-04-16T13:37:19.951Z,93.8002
2023-04-16T13:38:20.719Z,94.3307
2023-04-16T13:39:21.617Z,93.7853
2023-04-16T13:40:22.295Z,93.4045
2023-04-16T13:41:23.066Z,93.8415
2023-04-16T13:42:24.142Z,93.9933
2023-04-16T13:43:24.909Z,93.9592
2023-04-16T13:44:25.656Z,94.0707
2023-04-16T13:45:26.414Z,93.5469
2023-04-16T13:46:27.147Z,92.2825
2023-04-16T13:47:27.889Z,92.6955
2023-04-16T13:48:28.688Z,91.8953
2023-04-16T13:49:29.743Z,93.2359
2023-04-16T13:50:30.555Z,93.6086
2023-04-16T13:51:32.132Z,93.5456
2023-04-16T13:52:32.929Z,93.8591
2023-04-16T13:53:33.745Z,94.0233
2023-04-16T13:54:34.737Z,93.9277
2023-04-16T13:55:35.605Z,93.2956
2023-04-16T13:56:36.405Z,93.9500
2023-04-16T13:57:37.198Z,94.4463
2023-04-16T13:58:38.570Z,94.5835
2023-04-16T13:59:40.573Z,93.6339
2023-04-16T14:00:41.413Z,93.7764
2023-04-16T14:01:42.218Z,94.0870
2023-04-16T14:02:43.176Z,94.0322
2023-04-16T14:03:44.364Z,93.6827
2023-04-16T14:04:45.555Z,94.3159
2023-04-16T14:05:47.133Z,94.6510
2023-04-16T14:06:48.508Z,94.8942
2023-04-16T14:07:49.567Z,94.7055
2023-04-16T14:08:50.383Z,95.2241
2023-04-16T14:09:51.156Z,95.3566
2023-04-16T14:10:52.638Z,95.2767
2023-04-16T14:11:54.656Z,94.9382
2023-04-16T14:12:55.391Z,95.1624
2023-04-16T14:13:56.234Z,94.6436
2023-04-16T14:14:57.009Z,95.0601
2023-04-16T14:15:57.869Z,94.0915
2023-04-16T14:16:59.669Z,94.8506
2023-04-16T14:18:00.660Z,94.7907
2023-04-16T14:19:01.571Z,94.6272
2023-04-16T14:20:03.025Z,94.3835
2023-04-16T14:21:03.736Z,94.9778
2023-04-16T14:22:04.576Z,94.8081
2023-04-16T14:23:05.305Z,95.1033
2023-04-16T14:24:06.063Z,95.4022
2023-04-16T14:25:06.815Z,95.5876
2023-04-16T14:26:07.641Z,96.1293
2023-04-16T14:27:08.507Z,95.6146
2023-04-16T14:28:09.298Z,95.6115
2023-04-16T14:29:10.741Z,95.9802
2023-04-16T14:30:11.638Z,95.9138
2023-04-16T14:31:12.520Z,96.0354
2023-04-16T14:32:13.775Z,96.2573
2023-04-16T14:33:14.540Z,96.2097
2023-04-16T14:34:15.553Z,96.1904
2023-04-16T14:35:16.300Z,96.2919
2023-04-16T14:36:17.233Z,96.0506
2023-04-16T14:37:17.983Z,96.1563
2023-04-16T14:38:18.850Z,96.5516
2023-04-16T14:39:19.647Z,96.2068
2023-04-16T14:40:20.615Z,96.5073
2023-04-16T14:41:21.466Z,95.9790
2023-04-16T14:42:22.257Z,95.8588
2023-04-16T14:43:23.554Z,95.9616
2023-04-16T14:44:25.087Z,95.9109
2023-04-16T14:45:25.886Z,95.6686
2023-04-16T14:46:26.655Z,96.1326
2023-04-16T14:47:27.413Z,95.9275
2023-04-16T14:48:28.235Z,95.7969
2023-04-16T14:49:29.079Z,95.0402
2023-04-16T14:50:30.117Z,93.6493
2023-04-16T14:51:30.919Z,95.2034
2023-04-16T14:52:31.774Z,95.8793
2023-04-16T14:53:32.694Z,96.0952
2023-04-16T14:54:33.544Z,95.9003
2023-04-16T14:55:34.383Z,95.3945
2023-04-16T14:56:35.405Z,95.7357
2023-04-16T14:57:36.239Z,95.3693
2023-04-16T14:58:38.647Z,95.3988
2023-04-16T14:59:40.689Z,95.7090
2023-04-16T15:00:41.561Z,95.9255
2023-04-16T15:01:42.397Z,94.8851
2023-04-16T15:02:43.371Z,94.5889
2023-04-16T15:03:45.732Z,95.3254
2023-04-16T15:04:47.842Z,94.8480
2023-04-16T15:05:49.702Z,95.0547
2023-04-16T15:06:55.515Z,94.7662
